createdAt,value
2022-11-28T00:01:24.162Z,3.40
2022-11-28T00:03:51.491Z,3.40
2022-11-28T00:06:19.072Z,3.40
2022-11-28T00:08:46.510Z,3.50
2022-11-28T00:11:15.074Z,3.50
2022-11-28T00:13:42.388Z,3.50
2022-11-28T00:16:12.961Z,3.50
2022-11-28T00:18:40.299Z,3.50
2022-11-28T00:21:11.324Z,3.50
2022-11-28T00:23:38.738Z,3.50
2022-11-28T00:26:09.305Z,3.50
2022-11-28T00:28:36.668Z,3.40
2022-11-28T00:31:04.234Z,3.50
2022-11-28T00:33:32.429Z,3.40
2022-11-28T00:36:03.704Z,3.40
2022-11-28T00:38:31.033Z,3.40
2022-11-28T00:41:01.362Z,3.40
2022-11-28T00:43:28.820Z,3.40
2022-11-28T00:45:56.254Z,3.40
2022-11-28T00:48:23.989Z,3.30
2022-11-28T00:50:51.528Z,3.30
2022-11-28T00:53:18.825Z,3.40
2022-11-28T00:55:46.225Z,3.40
2022-11-28T00:58:13.530Z,3.40
2022-11-28T01:00:40.867Z,3.40
2022-11-28T01:03:08.234Z,3.40
2022-11-28T01:05:40.715Z,3.40
2022-11-28T01:08:08.092Z,3.40
2022-11-28T01:10:38.656Z,3.40
2022-11-28T01:13:05.941Z,3.40
2022-11-28T01:15:33.234Z,3.40
2022-11-28T01:18:01.261Z,3.40
2022-11-28T01:20:28.862Z,3.40
2022-11-28T01:22:56.129Z,3.40
2022-11-28T01:25:23.457Z,3.40
2022-11-28T01:27:50.836Z,3.40
2022-11-28T01:30:18.382Z,3.40
2022-11-28T01:32:45.633Z,3.40
2022-11-28T01:35:12.948Z,3.40
2022-11-28T01:37:40.305Z,3.40
2022-11-28T01:40:08.558Z,3.40
2022-11-28T01:42:35.831Z,3.40
2022-11-28T01:45:22.771Z,3.30
2022-11-28T01:47:50.469Z,3.30
2022-11-28T01:50:17.801Z,3.30
2022-11-28T01:52:45.758Z,3.30
2022-11-28T01:55:13.516Z,3.30
2022-11-28T01:57:40.856Z,3.30
2022-11-28T02:00:13.686Z,3.30
2022-11-28T02:02:46.570Z,3.30
2022-11-28T02:05:14.223Z,3.30
2022-11-28T02:07:42.873Z,3.40
2022-11-28T02:10:12.266Z,3.30
2022-11-28T02:13:03.846Z,3.30
2022-11-28T02:15:46.232Z,3.30
2022-11-28T02:18:51.740Z,3.30
2022-11-28T02:21:25.025Z,3.30
2022-11-28T02:24:21.020Z,3.30
2022-11-28T02:27:32.125Z,3.30
2022-11-28T02:30:09.819Z,3.40
2022-11-28T02:32:39.720Z,3.40
2022-11-28T02:35:43.880Z,3.40
2022-11-28T02:38:25.641Z,3.40
2022-11-28T02:41:02.943Z,3.40
2022-11-28T02:43:54.154Z,3.40
2022-11-28T02:46:34.611Z,3.50
2022-11-28T02:49:04.511Z,3.50
2022-11-28T02:51:43.615Z,3.50
2022-11-28T02:54:12.037Z,3.50
2022-11-28T02:56:39.367Z,3.50
2022-11-28T02:59:33.460Z,3.50
2022-11-28T03:02:01.023Z,3.50
2022-11-28T03:04:46.561Z,3.50
2022-11-28T03:07:33.556Z,3.40
2022-11-28T03:10:33.500Z,3.40
2022-11-28T03:13:16.732Z,3.40
2022-11-28T03:16:03.713Z,3.30
2022-11-28T03:18:59.115Z,3.30
2022-11-28T03:21:36.806Z,3.30
2022-11-28T03:24:10.741Z,3.30
2022-11-28T03:26:56.015Z,3.30
2022-11-28T03:29:29.510Z,3.30
2022-11-28T03:32:08.386Z,3.30
2022-11-28T03:34:38.458Z,3.30
2022-11-28T03:37:09.052Z,3.30
2022-11-28T03:39:39.034Z,3.30
2022-11-28T03:42:10.605Z,3.30
2022-11-28T03:44:51.213Z,3.20
2022-11-28T03:47:18.578Z,3.20
2022-11-28T03:49:50.635Z,3.20
2022-11-28T03:52:39.477Z,3.30
2022-11-28T03:55:14.616Z,3.20
2022-11-28T03:57:47.733Z,3.20
2022-11-28T04:00:15.599Z,3.20
2022-11-28T04:02:46.860Z,3.20
2022-11-28T04:05:54.874Z,3.20
2022-11-28T04:08:33.387Z,3.20
2022-11-28T04:11:00.646Z,3.20
2022-11-28T04:13:36.996Z,3.20
2022-11-28T04:16:19.369Z,3.20
2022-11-28T04:18:49.965Z,3.20
2022-11-28T04:21:32.431Z,3.20
2022-11-28T04:24:05.431Z,3.20
2022-11-28T04:26:34.778Z,3.20
2022-11-28T04:29:12.346Z,3.30
2022-11-28T04:31:39.743Z,3.30
2022-11-28T04:34:08.251Z,3.30
2022-11-28T04:36:37.007Z,3.30
2022-11-28T04:39:05.121Z,3.40
2022-11-28T04:41:40.434Z,3.30
2022-11-28T04:44:15.729Z,3.40
2022-11-28T04:46:47.181Z,3.40
2022-11-28T04:49:14.538Z,3.40
2022-11-28T04:52:00.765Z,3.30
2022-11-28T04:54:54.217Z,3.30
2022-11-28T04:57:31.748Z,3.30
2022-11-28T04:59:59.656Z,3.30
2022-11-28T05:02:27.033Z,3.40
2022-11-28T05:04:55.835Z,3.40
2022-11-28T05:07:24.229Z,3.40
2022-11-28T05:09:51.687Z,3.40
2022-11-28T05:12:19.043Z,3.50
2022-11-28T05:14:46.330Z,3.50
2022-11-28T05:17:13.750Z,3.40
2022-11-28T05:19:41.009Z,3.40
2022-11-28T05:22:08.347Z,3.40
2022-11-28T05:24:35.690Z,3.40
2022-11-28T05:27:03.041Z,3.30
2022-11-28T05:29:30.408Z,3.30
2022-11-28T05:31:57.867Z,3.30
2022-11-28T05:34:25.381Z,3.30
2022-11-28T05:36:52.773Z,3.30
2022-11-28T05:39:20.070Z,3.40
2022-11-28T05:41:47.406Z,3.30
2022-11-28T05:44:14.672Z,3.30
2022-11-28T05:46:41.936Z,3.20
2022-11-28T05:49:09.267Z,3.30
2022-11-28T05:51:36.609Z,3.30
2022-11-28T05:54:04.086Z,3.30
2022-11-28T05:56:31.455Z,3.30
2022-11-28T05:58:58.759Z,3.30
2022-11-28T06:01:27.774Z,3.30
2022-11-28T06:03:59.958Z,3.30
2022-11-28T06:06:29.109Z,3.30
2022-11-28T06:08:56.629Z,3.20
2022-11-28T06:11:24.923Z,3.20
2022-11-28T06:13:52.358Z,3.20
2022-11-28T06:16:24.373Z,3.20
2022-11-28T06:18:59.099Z,3.20
2022-11-28T06:21:26.747Z,3.30
2022-11-28T06:23:54.084Z,3.20
2022-11-28T06:26:22.684Z,3.30
2022-11-28T06:28:50.143Z,3.30
2022-11-28T06:31:19.284Z,3.30
2022-11-28T06:33:46.669Z,3.30
2022-11-28T06:36:14.515Z,3.40
2022-11-28T06:38:41.870Z,3.40
2022-11-28T06:41:10.745Z,3.50
2022-11-28T06:43:38.242Z,3.50
2022-11-28T06:46:05.846Z,3.60
2022-11-28T06:48:33.280Z,3.60
2022-11-28T06:51:04.699Z,3.60
2022-11-28T06:53:32.853Z,3.70
2022-11-28T06:56:14.251Z,3.70
2022-11-28T06:58:42.047Z,3.80
2022-11-28T07:01:20.712Z,3.80
2022-11-28T07:03:48.618Z,3.80
2022-11-28T07:06:17.465Z,3.90
2022-11-28T07:08:45.165Z,3.90
2022-11-28T07:11:13.448Z,4.00
2022-11-28T07:13:41.374Z,4.00
2022-11-28T07:16:10.662Z,4.00
2022-11-28T07:18:38.224Z,4.00
2022-11-28T07:21:05.844Z,4.10
2022-11-28T07:23:33.192Z,4.10
2022-11-28T07:26:01.285Z,4.20
2022-11-28T07:28:29.545Z,4.20
2022-11-28T07:31:16.836Z,4.20
2022-11-28T07:33:46.209Z,4.20
2022-11-28T07:36:23.004Z,4.30
2022-11-28T07:38:54.991Z,4.30
2022-11-28T07:41:26.442Z,4.30
2022-11-28T07:44:00.242Z,4.40
2022-11-28T07:46:28.875Z,4.40
2022-11-28T07:49:09.224Z,4.40
2022-11-28T07:51:38.707Z,4.50
2022-11-28T07:54:06.558Z,4.50
2022-11-28T07:57:11.683Z,4.60
2022-11-28T07:59:26.900Z,4.60
2022-11-28T08:01:55.123Z,4.70
2022-11-28T08:04:26.044Z,4.80
2022-11-28T08:06:55.535Z,4.80
2022-11-28T08:09:26.364Z,4.80
2022-11-28T08:11:54.083Z,4.80
2022-11-28T08:14:21.619Z,4.90
2022-11-28T08:16:56.729Z,4.90
2022-11-28T08:19:35.120Z,4.90
2022-11-28T08:22:03.556Z,5.00
2022-11-28T08:24:34.440Z,5.00
2022-11-28T08:27:03.812Z,5.00
2022-11-28T08:29:31.866Z,5.00
2022-11-28T08:31:59.429Z,5.10
2022-11-28T08:34:26.936Z,5.20
2022-11-28T08:36:54.540Z,5.20
2022-11-28T08:39:24.736Z,5.20
2022-11-28T08:41:57.456Z,5.20
2022-11-28T08:44:26.238Z,5.20
2022-11-28T08:46:54.138Z,5.30
2022-11-28T08:49:22.095Z,5.30
2022-11-28T08:51:49.723Z,5.30
2022-11-28T08:54:17.146Z,5.40
2022-11-28T08:56:46.592Z,5.40
2022-11-28T08:59:14.090Z,5.50
2022-11-28T09:01:41.617Z,5.60
2022-11-28T09:04:09.276Z,5.60
2022-11-28T09:06:39.814Z,5.70
2022-11-28T09:09:09.686Z,5.70
2022-11-28T09:11:39.324Z,5.80
2022-11-28T09:14:08.944Z,5.80
2022-11-28T09:16:39.682Z,5.90
2022-11-28T09:19:09.597Z,5.90
2022-11-28T09:21:37.254Z,6.00
2022-11-28T09:24:05.123Z,6.10
2022-11-28T09:26:34.731Z,6.10
2022-11-28T09:29:02.264Z,6.20
2022-11-28T09:31:29.774Z,6.20
2022-11-28T09:33:57.546Z,6.30
2022-11-28T09:36:25.512Z,6.40
2022-11-28T09:38:53.100Z,6.40
2022-11-28T09:41:32.804Z,6.50
2022-11-28T09:44:08.994Z,6.60
2022-11-28T09:46:36.921Z,6.70
2022-11-28T09:49:47.447Z,6.70
2022-11-28T09:52:31.187Z,6.90
2022-11-28T09:55:16.261Z,8.20
2022-11-28T09:57:50.016Z,10.00
2022-11-28T10:01:16.759Z,11.10
2022-11-28T10:04:18.743Z,11.60
2022-11-28T10:07:13.897Z,11.30
2022-11-28T10:10:22.281Z,10.70
2022-11-28T10:13:01.873Z,10.00
2022-11-28T10:16:03.507Z,9.40
2022-11-28T10:19:03.800Z,9.10
2022-11-28T10:21:46.101Z,8.70
2022-11-28T10:24:32.470Z,8.50
2022-11-28T10:27:03.349Z,8.30
2022-11-28T10:29:48.100Z,8.10
2022-11-28T10:32:19.496Z,8.00
2022-11-28T10:34:58.838Z,8.00
2022-11-28T10:37:28.287Z,8.00
2022-11-28T10:39:56.120Z,8.00
2022-11-28T10:42:32.214Z,7.90
2022-11-28T10:45:05.749Z,7.90
2022-11-28T10:48:29.643Z,8.00
2022-11-28T10:51:05.791Z,7.90
2022-11-28T10:53:55.185Z,7.90
2022-11-28T10:56:51.763Z,7.90
2022-11-28T10:59:27.431Z,7.90
2022-11-28T11:01:56.063Z,7.90
2022-11-28T11:04:27.372Z,8.00
2022-11-28T11:07:19.570Z,8.00
2022-11-28T11:09:54.640Z,8.00
2022-11-28T11:12:33.322Z,8.00
2022-11-28T11:15:17.566Z,8.00
2022-11-28T11:17:45.099Z,8.10
2022-11-28T11:20:38.204Z,8.10
2022-11-28T11:23:19.969Z,8.10
2022-11-28T11:25:58.259Z,8.00
2022-11-28T11:28:45.525Z,8.10
2022-11-28T11:31:23.463Z,8.10
2022-11-28T11:34:01.696Z,8.20
2022-11-28T11:36:34.251Z,8.20
2022-11-28T11:39:16.967Z,8.30
2022-11-28T11:41:51.933Z,8.30
2022-11-28T11:44:20.464Z,8.30
2022-11-28T11:46:54.608Z,8.30
2022-11-28T11:49:30.918Z,8.30
2022-11-28T11:51:59.997Z,8.30
2022-11-28T11:54:27.367Z,8.30
2022-11-28T11:57:11.168Z,8.40
2022-11-28T11:59:44.880Z,8.40
2022-11-28T12:02:32.706Z,8.40
2022-11-28T12:05:15.212Z,8.50
2022-11-28T12:08:03.704Z,8.50
2022-11-28T12:10:32.426Z,8.50
2022-11-28T12:12:59.755Z,8.50
2022-11-28T12:15:53.613Z,8.50
2022-11-28T12:18:43.521Z,8.50
2022-11-28T12:21:34.601Z,8.50
2022-11-28T12:24:01.954Z,8.50
2022-11-28T12:26:50.702Z,8.50
2022-11-28T12:29:27.987Z,8.50
2022-11-28T12:32:03.146Z,8.50
2022-11-28T12:34:52.273Z,8.50
2022-11-28T12:38:03.013Z,8.50
2022-11-28T12:40:32.961Z,8.50
2022-11-28T12:43:15.415Z,8.50
2022-11-28T12:45:51.950Z,8.50
2022-11-28T12:48:31.553Z,8.50
2022-11-28T12:51:12.509Z,8.50
2022-11-28T12:53:59.067Z,8.50
2022-11-28T12:56:49.412Z,8.40
2022-11-28T12:59:37.136Z,8.40
2022-11-28T13:02:35.748Z,8.40
2022-11-28T13:05:20.888Z,8.40
2022-11-28T13:08:16.579Z,8.40
2022-11-28T13:10:55.807Z,8.40
2022-11-28T13:13:24.796Z,8.30
2022-11-28T13:16:27.232Z,8.30
2022-11-28T13:19:02.918Z,8.30
2022-11-28T13:21:39.927Z,8.30
2022-11-28T13:24:30.909Z,8.30
2022-11-28T13:27:07.133Z,8.30
2022-11-28T13:29:40.606Z,8.30
2022-11-28T13:32:32.504Z,8.30
2022-11-28T13:34:59.782Z,8.20
2022-11-28T13:40:46.302Z,8.30
2022-11-28T13:43:22.510Z,8.30
2022-11-28T13:45:49.844Z,8.30
2022-11-28T13:49:05.922Z,8.30
2022-11-28T13:51:31.632Z,8.30
2022-11-28T13:54:20.463Z,8.30
2022-11-28T13:57:02.866Z,8.20
2022-11-28T13:59:30.688Z,8.20
2022-11-28T14:02:01.886Z,8.20
2022-11-28T14:04:29.732Z,8.20
2022-11-28T14:07:07.082Z,8.20
2022-11-28T14:09:55.382Z,8.20
2022-11-28T14:12:30.834Z,8.20
2022-11-28T14:15:21.964Z,8.20
2022-11-28T14:18:39.333Z,8.20
2022-11-28T14:21:39.428Z,8.20
2022-11-28T14:24:09.501Z,8.20
2022-11-28T14:26:38.727Z,8.20
2022-11-28T14:29:23.979Z,8.10
2022-11-28T14:32:21.639Z,8.10
2022-11-28T14:34:49.863Z,8.10
2022-11-28T14:37:20.799Z,8.10
2022-11-28T14:39:50.194Z,8.10
2022-11-28T14:42:43.883Z,8.10
2022-11-28T14:45:41.376Z,8.10
2022-11-28T14:48:22.933Z,8.00
2022-11-28T14:50:59.080Z,8.00
2022-11-28T14:53:43.505Z,8.00
2022-11-28T14:56:11.399Z,8.00
2022-11-28T14:58:38.842Z,7.90
2022-11-28T15:01:10.122Z,7.90
2022-11-28T15:03:47.503Z,8.00
2022-11-28T15:06:19.973Z,8.00
2022-11-28T15:09:07.084Z,8.00
2022-11-28T15:11:58.669Z,7.90
2022-11-28T15:14:27.451Z,7.90
2022-11-28T15:17:04.015Z,7.90
2022-11-28T15:19:38.795Z,7.90
2022-11-28T15:22:06.499Z,7.90
2022-11-28T15:24:35.822Z,7.90
2022-11-28T15:27:12.555Z,7.90
2022-11-28T15:29:40.050Z,7.90
2022-11-28T15:32:07.503Z,7.90
2022-11-28T15:34:35.617Z,7.90
2022-11-28T15:37:13.745Z,7.90
2022-11-28T15:39:42.013Z,7.90
2022-11-28T15:42:26.821Z,7.90
2022-11-28T15:45:30.135Z,7.90
2022-11-28T15:47:57.942Z,7.90
2022-11-28T15:50:27.377Z,7.90
2022-11-28T15:53:17.266Z,7.90
2022-11-28T15:55:44.728Z,7.90
2022-11-28T15:58:25.423Z,7.90
2022-11-28T16:01:15.553Z,8.00
2022-11-28T16:04:15.949Z,8.00
2022-11-28T16:06:44.354Z,7.90
2022-11-28T16:09:18.115Z,7.90
2022-11-28T16:11:47.109Z,7.90
2022-11-28T16:14:24.261Z,7.90
2022-11-28T16:16:51.638Z,7.90
2022-11-28T16:19:33.079Z,7.80
2022-11-28T16:22:03.697Z,7.80
2022-11-28T16:24:43.342Z,7.80
2022-11-28T16:27:30.284Z,7.90
2022-11-28T16:29:57.780Z,7.90
2022-11-28T16:32:38.943Z,7.90
2022-11-28T16:35:08.510Z,7.90
2022-11-28T16:37:35.844Z,7.90
2022-11-28T16:40:10.684Z,7.90
2022-11-28T16:42:37.977Z,7.90
2022-11-28T16:45:19.241Z,7.90
2022-11-28T16:47:46.571Z,8.00
2022-11-28T16:50:20.145Z,8.00
2022-11-28T16:52:54.855Z,8.00
2022-11-28T16:55:37.386Z,8.10
2022-11-28T16:58:21.013Z,8.10
2022-11-28T17:00:59.879Z,8.10
2022-11-28T17:03:44.927Z,8.00
2022-11-28T17:06:33.745Z,8.00
2022-11-28T17:09:01.658Z,8.00
2022-11-28T17:11:32.659Z,7.90
2022-11-28T17:14:02.569Z,7.80
2022-11-28T17:16:30.687Z,7.90
2022-11-28T17:18:57.994Z,7.90
2022-11-28T17:21:42.243Z,7.80
2022-11-28T17:24:32.026Z,7.80
2022-11-28T17:26:59.441Z,7.80
2022-11-28T17:29:27.878Z,7.80
2022-11-28T17:31:57.691Z,7.70
2022-11-28T17:34:31.213Z,7.70
2022-11-28T17:37:01.886Z,7.60
2022-11-28T17:39:29.785Z,7.60
2022-11-28T17:41:57.615Z,7.60
2022-11-28T17:44:26.690Z,7.50
2022-11-28T17:46:55.205Z,7.50
2022-11-28T17:49:23.537Z,7.50
2022-11-28T17:51:51.343Z,7.50
2022-11-28T17:54:20.297Z,7.50
2022-11-28T17:56:49.352Z,7.50
2022-11-28T17:59:17.931Z,7.50
2022-11-28T18:01:45.445Z,7.50
2022-11-28T18:04:12.936Z,7.50
2022-11-28T18:06:43.359Z,7.50
2022-11-28T18:09:12.328Z,7.50
2022-11-28T18:11:41.386Z,7.50
2022-11-28T18:14:09.400Z,7.50
2022-11-28T18:16:36.867Z,7.50
2022-11-28T18:19:04.522Z,7.50
2022-11-28T18:21:32.538Z,7.50
2022-11-28T18:23:59.860Z,7.60
2022-11-28T18:26:27.337Z,7.60
2022-11-28T18:28:54.903Z,7.60
2022-11-28T18:31:27.333Z,7.60
2022-11-28T18:34:00.299Z,7.50
2022-11-28T18:36:30.708Z,7.60
2022-11-28T18:39:02.094Z,7.60
2022-11-28T18:41:29.494Z,7.60
2022-11-28T18:43:57.919Z,7.60
2022-11-28T18:46:26.021Z,7.70
2022-11-28T18:48:54.156Z,7.70
2022-11-28T18:51:34.171Z,7.70
2022-11-28T18:54:05.256Z,7.60
2022-11-28T18:56:34.237Z,7.60
2022-11-28T18:59:01.636Z,7.70
2022-11-28T19:01:33.514Z,7.60
2022-11-28T19:04:02.821Z,7.70
2022-11-28T19:06:30.834Z,7.70
2022-11-28T19:09:00.533Z,7.70
2022-11-28T19:11:28.738Z,7.70
2022-11-28T19:13:57.227Z,7.70
2022-11-28T19:16:32.416Z,7.70
2022-11-28T19:19:00.767Z,7.70
2022-11-28T19:21:31.677Z,7.70
2022-11-28T19:23:59.626Z,7.60
2022-11-28T19:26:29.759Z,7.60
2022-11-28T19:28:59.576Z,7.60
2022-11-28T19:31:28.435Z,7.60
2022-11-28T19:34:01.927Z,7.60
2022-11-28T19:36:37.377Z,7.60
2022-11-28T19:39:05.307Z,7.70
2022-11-28T19:41:33.608Z,7.60
2022-11-28T19:44:01.678Z,7.60
2022-11-28T19:46:34.999Z,7.60
2022-11-28T19:49:04.788Z,7.60
2022-11-28T19:51:32.264Z,7.60
2022-11-28T19:54:03.232Z,7.60
2022-11-28T19:56:32.434Z,7.60
2022-11-28T19:58:59.977Z,7.60
2022-11-28T20:01:28.651Z,7.70
2022-11-28T20:03:56.992Z,7.70
2022-11-28T20:06:29.122Z,7.60
2022-11-28T20:09:08.851Z,7.60
2022-11-28T20:11:40.591Z,7.60
2022-11-28T20:14:17.047Z,7.60
2022-11-28T20:16:44.811Z,7.60
2022-11-28T20:19:14.215Z,7.60
2022-11-28T20:21:42.914Z,7.50
2022-11-28T20:24:10.536Z,7.50
2022-11-28T20:26:40.500Z,7.50
2022-11-28T20:29:09.490Z,7.40
2022-11-28T20:31:38.220Z,7.40
2022-11-28T20:34:06.469Z,7.40
2022-11-28T20:36:34.268Z,7.40
2022-11-28T20:39:02.308Z,7.30
2022-11-28T20:41:29.791Z,7.30
2022-11-28T20:43:58.601Z,7.30
2022-11-28T20:46:28.353Z,7.30
2022-11-28T20:48:57.027Z,7.30
2022-11-28T20:51:25.011Z,7.30
2022-11-28T20:53:53.022Z,7.20
2022-11-28T20:56:21.995Z,7.30
2022-11-28T20:58:49.890Z,7.20
2022-11-28T21:01:27.795Z,7.20
2022-11-28T21:03:55.259Z,7.20
2022-11-28T21:06:22.637Z,7.20
2022-11-28T21:08:50.031Z,7.20
2022-11-28T21:11:50.227Z,7.20
2022-11-28T21:14:08.979Z,7.20
2022-11-28T21:16:36.363Z,7.20
2022-11-28T21:19:07.715Z,7.20
2022-11-28T21:21:36.157Z,7.20
2022-11-28T21:24:08.605Z,7.30
2022-11-28T21:26:41.004Z,7.20
2022-11-28T21:29:09.531Z,7.20
2022-11-28T21:31:37.915Z,7.20
2022-11-28T21:34:05.261Z,7.20
2022-11-28T21:36:32.605Z,7.20
2022-11-28T21:39:00.562Z,7.20
2022-11-28T21:41:29.778Z,7.20
2022-11-28T21:43:57.338Z,7.20
2022-11-28T21:46:24.830Z,7.20
2022-11-28T21:48:52.316Z,7.10
2022-11-28T21:51:22.192Z,7.10
2022-11-28T21:53:49.629Z,7.10
2022-11-28T21:56:17.053Z,7.10
2022-11-28T21:58:44.500Z,7.10
2022-11-28T22:01:14.137Z,7.10
2022-11-28T22:03:43.821Z,7.10
2022-11-28T22:06:16.785Z,7.10
2022-11-28T22:08:44.417Z,7.10
2022-11-28T22:11:13.421Z,7.10
2022-11-28T22:13:47.592Z,7.10
2022-11-28T22:16:26.151Z,7.10
2022-11-28T22:18:54.459Z,7.10
2022-11-28T22:21:50.576Z,7.10
2022-11-28T22:24:09.375Z,7.10
2022-11-28T22:26:36.826Z,7.10
2022-11-28T22:29:04.563Z,7.10
2022-11-28T22:31:32.983Z,7.10
2022-11-28T22:34:00.587Z,7.10
2022-11-28T22:36:28.634Z,7.10
2022-11-28T22:38:56.825Z,7.10
2022-11-28T22:41:28.971Z,7.10
2022-11-28T22:44:00.690Z,7.20
2022-11-28T22:46:28.607Z,7.20
2022-11-28T22:48:56.102Z,7.10
2022-11-28T22:51:24.821Z,7.20
2022-11-28T22:53:57.510Z,7.20
2022-11-28T22:56:27.023Z,7.20
2022-11-28T22:58:54.571Z,7.20
2022-11-28T23:01:26.888Z,7.20
2022-11-28T23:03:54.640Z,7.30
2022-11-28T23:06:25.419Z,7.30
2022-11-28T23:08:56.472Z,7.20
2022-11-28T23:11:28.056Z,7.20
2022-11-28T23:13:55.635Z,7.20
2022-11-28T23:16:30.643Z,7.20
2022-11-28T23:18:59.594Z,7.20
2022-11-28T23:21:29.703Z,7.20
2022-11-28T23:23:57.127Z,7.20
2022-11-28T23:26:28.685Z,7.20
2022-11-28T23:28:56.376Z,7.20
2022-11-28T23:31:25.489Z,7.20
2022-11-28T23:33:55.097Z,7.30
2022-11-28T23:36:30.810Z,7.30
2022-11-28T23:39:01.097Z,7.30
2022-11-28T23:41:28.807Z,7.30
2022-11-28T23:43:56.569Z,7.20
2022-11-28T23:46:24.073Z,7.20
2022-11-28T23:48:51.489Z,7.30
2022-11-28T23:51:20.695Z,7.20
2022-11-28T23:53:48.346Z,7.20
2022-11-28T23:56:27.134Z,7.30
2022-11-28T23:58:55.051Z,7.30
